createdAt,value
2022-12-18T00:01:22.741Z,-2.70
2022-12-18T00:03:50.238Z,-2.80
2022-12-18T00:06:19.808Z,-2.70
2022-12-18T00:08:46.937Z,-2.80
2022-12-18T00:11:16.155Z,-2.80
2022-12-18T00:13:43.560Z,-2.80
2022-12-18T00:16:13.325Z,-2.80
2022-12-18T00:18:40.808Z,-2.80
2022-12-18T00:21:09.498Z,-2.90
2022-12-18T00:23:38.131Z,-2.90
2022-12-18T00:26:07.903Z,-2.90
2022-12-18T00:28:34.800Z,-2.90
2022-12-18T00:31:06.319Z,-2.90
2022-12-18T00:33:33.187Z,-2.80
2022-12-18T00:36:10.201Z,-2.80
2022-12-18T00:38:37.141Z,-2.90
2022-12-18T00:41:04.270Z,-3.00
2022-12-18T00:43:30.917Z,-2.90
2022-12-18T00:45:57.606Z,-3.00
2022-12-18T00:48:24.236Z,-3.00
2022-12-18T00:50:52.006Z,-3.00
2022-12-18T00:53:19.140Z,-3.00
2022-12-18T00:55:47.046Z,-3.10
2022-12-18T00:58:15.506Z,-3.10
2022-12-18T01:00:42.940Z,-3.00
2022-12-18T01:03:13.364Z,-3.00
2022-12-18T01:05:41.635Z,-3.00
2022-12-18T01:08:08.346Z,-3.00
2022-12-18T01:10:35.132Z,-3.10
2022-12-18T01:13:01.728Z,-3.20
2022-12-18T01:15:28.509Z,-3.20
2022-12-18T01:17:55.141Z,-3.10
2022-12-18T01:20:21.967Z,-3.10
2022-12-18T01:22:48.530Z,-3.10
2022-12-18T01:25:15.237Z,-3.20
2022-12-18T01:27:41.856Z,-3.20
2022-12-18T01:30:08.918Z,-3.20
2022-12-18T01:32:35.539Z,-3.20
2022-12-18T01:35:02.426Z,-3.20
2022-12-18T01:37:29.095Z,-3.20
2022-12-18T01:39:56.406Z,-3.20
2022-12-18T01:42:23.353Z,-3.20
2022-12-18T01:45:24.126Z,-3.20
2022-12-18T01:48:01.351Z,-3.20
2022-12-18T01:50:39.604Z,-3.20
2022-12-18T01:53:17.755Z,-3.20
2022-12-18T01:55:54.316Z,-3.30
2022-12-18T01:58:43.125Z,-3.30
2022-12-18T02:01:10.351Z,-3.30
2022-12-18T02:03:37.799Z,-3.30
2022-12-18T02:06:17.133Z,-3.40
2022-12-18T02:09:03.541Z,-3.40
2022-12-18T02:11:56.433Z,-3.40
2022-12-18T02:15:04.330Z,-3.40
2022-12-18T02:18:16.146Z,-3.40
2022-12-18T02:21:01.987Z,-3.40
2022-12-18T02:23:47.913Z,-3.40
2022-12-18T02:26:23.167Z,-3.40
2022-12-18T02:28:55.299Z,-3.50
2022-12-18T02:31:28.642Z,-3.50
2022-12-18T02:33:59.710Z,-3.50
2022-12-18T02:36:29.082Z,-3.50
2022-12-18T02:38:57.406Z,-3.50
2022-12-18T02:41:25.125Z,-3.50
2022-12-18T02:43:58.063Z,-3.60
2022-12-18T02:46:47.263Z,-3.60
2022-12-18T02:49:35.675Z,-3.70
2022-12-18T02:52:23.820Z,-3.70
2022-12-18T02:55:12.379Z,-3.70
2022-12-18T02:57:54.305Z,-3.60
2022-12-18T03:00:36.834Z,-3.60
2022-12-18T03:03:19.597Z,-3.60
2022-12-18T03:06:15.968Z,-3.60
2022-12-18T03:08:47.328Z,-3.60
2022-12-18T03:11:15.402Z,-3.60
2022-12-18T03:13:52.614Z,-3.60
2022-12-18T03:16:24.326Z,-3.60
2022-12-18T03:18:55.955Z,-3.60
2022-12-18T03:21:36.392Z,-3.60
2022-12-18T03:24:06.905Z,-3.60
2022-12-18T03:26:36.208Z,-3.60
2022-12-18T03:29:09.081Z,-3.70
2022-12-18T03:31:38.478Z,-3.60
2022-12-18T03:34:18.416Z,-3.70
2022-12-18T03:36:45.079Z,-3.70
2022-12-18T03:39:11.810Z,-3.70
2022-12-18T03:41:51.959Z,-3.70
2022-12-18T03:45:00.417Z,-3.70
2022-12-18T03:47:54.916Z,-3.70
2022-12-18T03:50:55.633Z,-3.70
2022-12-18T03:53:33.123Z,-3.70
2022-12-18T03:56:01.623Z,-3.80
2022-12-18T03:58:29.359Z,-3.80
2022-12-18T04:01:00.637Z,-3.80
2022-12-18T04:03:30.480Z,-3.80
2022-12-18T04:06:00.097Z,-3.80
2022-12-18T04:08:27.188Z,-3.80
2022-12-18T04:10:53.798Z,-3.70
2022-12-18T04:13:25.622Z,-3.70
2022-12-18T04:15:52.460Z,-3.70
2022-12-18T04:18:19.250Z,-3.70
2022-12-18T04:20:45.862Z,-3.80
2022-12-18T04:23:12.563Z,-3.80
2022-12-18T04:25:39.431Z,-3.80
2022-12-18T04:28:06.139Z,-3.80
2022-12-18T04:30:32.776Z,-3.80
2022-12-18T04:32:59.334Z,-3.90
2022-12-18T04:35:25.983Z,-3.90
2022-12-18T04:37:52.609Z,-3.90
2022-12-18T04:40:19.158Z,-3.90
2022-12-18T04:42:45.760Z,-3.90
2022-12-18T04:45:12.380Z,-3.90
2022-12-18T04:47:38.942Z,-3.90
2022-12-18T04:50:06.181Z,-3.90
2022-12-18T04:52:32.724Z,-3.90
2022-12-18T04:54:59.305Z,-4.00
2022-12-18T04:57:25.917Z,-4.00
2022-12-18T04:59:52.478Z,-4.00
2022-12-18T05:02:19.164Z,-4.00
2022-12-18T05:04:46.852Z,-4.10
2022-12-18T05:07:13.421Z,-4.00
2022-12-18T05:09:39.954Z,-4.10
2022-12-18T05:12:06.708Z,-4.10
2022-12-18T05:14:33.302Z,-4.10
2022-12-18T05:17:01.205Z,-4.20
2022-12-18T05:19:28.043Z,-4.20
2022-12-18T05:21:54.609Z,-4.20
2022-12-18T05:24:21.201Z,-4.20
2022-12-18T05:26:47.875Z,-4.20
2022-12-18T05:29:14.470Z,-4.20
2022-12-18T05:31:41.432Z,-4.20
2022-12-18T05:34:09.504Z,-4.20
2022-12-18T05:36:37.225Z,-4.20
2022-12-18T05:39:04.102Z,-4.30
2022-12-18T05:41:31.047Z,-4.30
2022-12-18T05:43:57.718Z,-4.30
2022-12-18T05:46:25.238Z,-4.30
2022-12-18T05:48:52.249Z,-4.30
2022-12-18T05:51:21.326Z,-4.30
2022-12-18T05:53:49.094Z,-4.30
2022-12-18T05:56:18.447Z,-4.30
2022-12-18T05:58:45.639Z,-4.40
2022-12-18T06:01:16.411Z,-4.30
2022-12-18T06:03:43.871Z,-4.30
2022-12-18T06:06:21.118Z,-4.30
2022-12-18T06:08:48.072Z,-4.30
2022-12-18T06:11:18.119Z,-4.30
2022-12-18T06:13:44.734Z,-4.30
2022-12-18T06:16:11.639Z,-4.30
2022-12-18T06:18:38.919Z,-4.40
2022-12-18T06:21:05.781Z,-4.40
2022-12-18T06:23:32.520Z,-4.40
2022-12-18T06:25:59.727Z,-4.40
2022-12-18T06:28:26.447Z,-4.40
2022-12-18T06:30:53.932Z,-4.40
2022-12-18T06:33:20.611Z,-4.40
2022-12-18T06:35:47.598Z,-4.40
2022-12-18T06:38:14.194Z,-4.40
2022-12-18T06:40:40.775Z,-4.50
2022-12-18T06:43:07.529Z,-4.50
2022-12-18T06:45:34.260Z,-4.50
2022-12-18T06:48:01.270Z,-4.50
2022-12-18T06:50:27.914Z,-4.50
2022-12-18T06:52:54.602Z,-4.50
2022-12-18T06:55:21.191Z,-4.60
2022-12-18T06:57:47.921Z,-4.60
2022-12-18T07:00:14.870Z,-4.60
2022-12-18T07:02:41.798Z,-4.60
2022-12-18T07:05:10.916Z,-4.60
2022-12-18T07:07:38.088Z,-4.60
2022-12-18T07:10:05.132Z,-4.60
2022-12-18T07:12:31.896Z,-4.60
2022-12-18T07:14:58.457Z,-4.70
2022-12-18T07:17:24.992Z,-4.70
2022-12-18T07:19:53.019Z,-4.70
2022-12-18T07:22:19.749Z,-4.70
2022-12-18T07:24:46.389Z,-4.70
2022-12-18T07:27:12.994Z,-4.70
2022-12-18T07:29:39.918Z,-4.60
2022-12-18T07:32:07.953Z,-4.70
2022-12-18T07:34:35.455Z,-4.60
2022-12-18T07:37:02.236Z,-4.70
2022-12-18T07:39:28.834Z,-4.60
2022-12-18T07:42:16.976Z,-4.60
2022-12-18T07:44:43.615Z,-4.70
2022-12-18T07:47:12.228Z,-4.60
2022-12-18T07:49:39.334Z,-4.70
2022-12-18T07:52:06.100Z,-4.60
2022-12-18T07:54:32.842Z,-4.60
2022-12-18T07:57:00.479Z,-4.60
2022-12-18T07:59:27.198Z,-4.60
2022-12-18T08:01:53.952Z,-4.60
2022-12-18T08:04:20.611Z,-4.60
2022-12-18T08:06:48.299Z,-4.60
2022-12-18T08:09:15.428Z,-4.60
2022-12-18T08:11:41.955Z,-4.50
2022-12-18T08:14:08.675Z,-4.50
2022-12-18T08:16:35.686Z,-4.50
2022-12-18T08:19:02.644Z,-4.50
2022-12-18T08:21:31.608Z,-4.40
2022-12-18T08:24:00.555Z,-4.40
2022-12-18T08:26:29.167Z,-4.40
2022-12-18T08:28:57.030Z,-4.40
2022-12-18T08:31:25.588Z,-4.40
2022-12-18T08:33:53.448Z,-4.30
2022-12-18T08:36:21.580Z,-4.30
2022-12-18T08:38:48.411Z,-4.30
2022-12-18T08:41:17.372Z,-4.30
2022-12-18T08:44:02.817Z,-4.30
2022-12-18T08:46:35.595Z,-4.20
2022-12-18T08:49:02.477Z,-4.20
2022-12-18T08:51:29.648Z,-4.20
2022-12-18T08:53:56.188Z,-4.10
2022-12-18T08:56:22.763Z,-4.10
2022-12-18T08:58:53.643Z,-4.00
2022-12-18T09:01:21.069Z,-4.00
2022-12-18T09:03:47.974Z,-3.90
2022-12-18T09:06:16.697Z,-3.90
2022-12-18T09:08:44.842Z,-3.80
2022-12-18T09:11:21.761Z,-3.80
2022-12-18T09:13:48.982Z,-3.70
2022-12-18T09:16:15.815Z,-3.60
2022-12-18T09:18:43.152Z,-3.60
2022-12-18T09:21:12.088Z,-3.50
2022-12-18T09:23:38.713Z,-3.40
2022-12-18T09:26:05.684Z,-3.40
2022-12-18T09:28:32.333Z,-3.30
2022-12-18T09:30:59.253Z,-3.30
2022-12-18T09:33:25.917Z,-3.20
2022-12-18T09:35:52.841Z,-3.10
2022-12-18T09:38:20.637Z,-3.00
2022-12-18T09:40:57.656Z,-2.90
2022-12-18T09:43:30.421Z,-2.90
2022-12-18T09:46:04.103Z,-2.80
2022-12-18T09:48:36.029Z,-2.70
2022-12-18T09:51:15.562Z,-2.60
2022-12-18T09:53:47.401Z,-2.60
2022-12-18T09:56:19.580Z,-2.50
2022-12-18T09:59:00.271Z,-2.40
2022-12-18T10:01:36.358Z,-2.30
2022-12-18T10:04:10.426Z,-2.20
2022-12-18T10:06:41.704Z,-2.10
2022-12-18T10:09:26.415Z,-2.10
2022-12-18T10:11:53.108Z,-2.00
2022-12-18T10:14:35.114Z,-1.90
2022-12-18T10:17:14.776Z,-1.90
2022-12-18T10:19:50.364Z,-1.80
2022-12-18T10:22:31.937Z,-1.70
2022-12-18T10:25:25.010Z,-1.60
2022-12-18T10:27:55.553Z,-1.50
2022-12-18T10:30:23.895Z,-1.60
2022-12-18T10:32:50.604Z,-1.50
2022-12-18T10:35:26.297Z,-1.40
2022-12-18T10:38:17.151Z,-1.40
2022-12-18T10:41:10.428Z,-1.30
2022-12-18T10:43:39.953Z,-1.20
2022-12-18T10:46:09.698Z,-1.20
2022-12-18T10:48:57.017Z,-1.10
2022-12-18T10:51:36.292Z,-1.00
2022-12-18T10:54:06.340Z,-1.00
2022-12-18T10:56:36.407Z,-0.90
2022-12-18T10:59:05.997Z,-0.90
2022-12-18T11:01:47.304Z,-0.90
2022-12-18T11:04:25.732Z,-0.80
2022-12-18T11:06:59.295Z,-0.70
2022-12-18T11:09:35.189Z,-0.50
2022-12-18T11:12:07.213Z,-0.50
2022-12-18T11:14:46.488Z,-0.30
2022-12-18T11:17:26.650Z,-0.30
2022-12-18T11:19:56.300Z,-0.20
2022-12-18T11:22:30.042Z,-0.20
2022-12-18T11:27:55.046Z,-0.10
2022-12-18T11:30:32.349Z,-0.10
2022-12-18T11:33:10.764Z,-0.10
2022-12-18T11:35:46.450Z,0.00
2022-12-18T11:38:26.267Z,-0.10
2022-12-18T11:41:45.413Z,-0.10
2022-12-18T11:44:19.148Z,-0.10
2022-12-18T11:47:15.295Z,0.00
2022-12-18T11:49:43.007Z,0.00
2022-12-18T11:52:19.784Z,0.00
2022-12-18T11:54:46.394Z,0.00
2022-12-18T11:57:36.377Z,-0.10
2022-12-18T12:00:18.013Z,0.00
2022-12-18T12:03:05.616Z,0.10
2022-12-18T12:05:56.910Z,0.10
2022-12-18T12:08:42.175Z,0.10
2022-12-18T12:11:41.502Z,0.20
2022-12-18T12:14:19.910Z,0.20
2022-12-18T12:17:13.270Z,0.20
2022-12-18T12:19:51.458Z,0.20
2022-12-18T12:22:45.856Z,0.20
2022-12-18T12:25:51.854Z,0.20
2022-12-18T12:28:30.619Z,0.20
2022-12-18T12:31:28.140Z,0.10
2022-12-18T12:34:21.055Z,0.10
2022-12-18T12:37:12.798Z,0.10
2022-12-18T12:39:43.424Z,0.20
2022-12-18T12:42:54.577Z,0.10
2022-12-18T12:45:50.156Z,0.10
2022-12-18T12:48:37.054Z,0.10
2022-12-18T12:51:12.091Z,0.10
2022-12-18T12:53:40.417Z,0.10
2022-12-18T12:56:12.326Z,0.10
2022-12-18T12:58:56.793Z,0.10
2022-12-18T13:01:30.457Z,0.20
2022-12-18T13:04:22.212Z,0.10
2022-12-18T13:06:52.993Z,0.10
2022-12-18T13:09:19.600Z,0.00
2022-12-18T13:12:06.784Z,0.10
2022-12-18T13:14:41.832Z,0.10
2022-12-18T13:17:21.052Z,0.20
2022-12-18T13:20:07.331Z,0.30
2022-12-18T13:22:40.215Z,0.30
2022-12-18T13:25:37.051Z,0.30
2022-12-18T13:28:11.048Z,0.40
2022-12-18T13:30:43.010Z,0.40
2022-12-18T13:33:15.966Z,0.40
2022-12-18T13:35:46.851Z,0.40
2022-12-18T13:38:32.399Z,0.40
2022-12-18T13:41:22.428Z,0.30
2022-12-18T13:43:54.558Z,0.30
2022-12-18T13:46:22.648Z,0.20
2022-12-18T13:49:04.291Z,0.20
2022-12-18T13:51:33.860Z,0.20
2022-12-18T13:54:21.121Z,0.10
2022-12-18T13:56:50.273Z,0.10
2022-12-18T13:59:33.646Z,0.00
2022-12-18T14:02:06.499Z,-0.10
2022-12-18T14:04:35.762Z,-0.20
2022-12-18T14:07:13.636Z,-0.10
2022-12-18T14:09:49.760Z,-0.20
2022-12-18T14:12:37.175Z,-0.20
2022-12-18T14:15:06.859Z,-0.30
2022-12-18T14:17:33.451Z,-0.30
2022-12-18T14:20:01.387Z,-0.50
2022-12-18T14:22:30.306Z,-0.50
2022-12-18T14:25:16.078Z,-0.50
2022-12-18T14:28:02.636Z,-0.60
2022-12-18T14:30:34.013Z,-0.60
2022-12-18T14:33:12.930Z,-0.60
2022-12-18T14:35:59.440Z,-0.70
2022-12-18T14:38:34.475Z,-0.70
2022-12-18T14:41:06.908Z,-0.80
2022-12-18T14:43:39.190Z,-0.80
2022-12-18T14:46:26.490Z,-0.80
2022-12-18T14:48:54.034Z,-0.90
2022-12-18T14:51:26.995Z,-0.90
2022-12-18T14:54:01.989Z,-1.00
2022-12-18T14:56:45.861Z,-0.90
2022-12-18T14:59:22.338Z,-0.90
2022-12-18T15:02:14.368Z,-0.90
2022-12-18T15:04:44.639Z,-0.90
2022-12-18T15:07:17.216Z,-0.90
2022-12-18T15:10:00.914Z,-1.00
2022-12-18T15:12:38.044Z,-1.10
2022-12-18T15:15:07.253Z,-1.10
2022-12-18T15:17:33.878Z,-1.20
2022-12-18T15:20:11.034Z,-1.20
2022-12-18T15:22:38.186Z,-1.30
2022-12-18T15:25:30.542Z,-1.30
2022-12-18T15:27:57.163Z,-1.30
2022-12-18T15:30:25.221Z,-1.30
2022-12-18T15:33:13.831Z,-1.30
2022-12-18T15:35:46.743Z,-1.40
2022-12-18T15:38:13.990Z,-1.40
2022-12-18T15:40:42.160Z,-1.30
2022-12-18T15:43:28.822Z,-1.30
2022-12-18T15:45:55.414Z,-1.40
2022-12-18T15:48:23.586Z,-1.30
2022-12-18T15:50:56.360Z,-1.40
2022-12-18T15:53:23.355Z,-1.40
2022-12-18T15:56:25.722Z,-1.30
2022-12-18T15:58:52.756Z,-1.30
2022-12-18T16:01:19.621Z,-1.30
2022-12-18T16:03:46.566Z,-1.40
2022-12-18T16:06:13.167Z,-1.30
2022-12-18T16:08:39.740Z,-1.30
2022-12-18T16:11:41.566Z,-1.30
2022-12-18T16:14:25.033Z,-1.30
2022-12-18T16:16:54.538Z,-1.30
2022-12-18T16:19:22.103Z,-1.30
2022-12-18T16:21:50.411Z,-1.40
2022-12-18T16:24:19.247Z,-1.40
2022-12-18T16:26:46.303Z,-1.40
2022-12-18T16:29:12.893Z,-1.30
2022-12-18T16:31:39.541Z,-1.30
2022-12-18T16:34:29.425Z,-1.40
2022-12-18T16:37:06.007Z,-1.40
2022-12-18T16:39:37.750Z,-1.30
2022-12-18T16:42:08.113Z,-1.30
2022-12-18T16:44:35.255Z,-1.30
2022-12-18T16:47:03.194Z,-1.30
2022-12-18T16:49:30.701Z,-1.30
2022-12-18T16:51:57.378Z,-1.30
2022-12-18T16:54:24.098Z,-1.30
2022-12-18T16:56:52.115Z,-1.30
2022-12-18T16:59:19.201Z,-1.40
2022-12-18T17:01:46.605Z,-1.40
2022-12-18T17:04:13.428Z,-1.40
2022-12-18T17:06:42.651Z,-1.40
2022-12-18T17:09:13.595Z,-1.40
2022-12-18T17:11:40.233Z,-1.50
2022-12-18T17:14:09.439Z,-1.50
2022-12-18T17:16:36.054Z,-1.50
2022-12-18T17:19:04.690Z,-1.50
2022-12-18T17:21:31.799Z,-1.50
2022-12-18T17:24:01.488Z,-1.50
2022-12-18T17:26:29.285Z,-1.60
2022-12-18T17:28:59.973Z,-1.60
2022-12-18T17:31:30.097Z,-1.60
2022-12-18T17:33:57.809Z,-1.60
2022-12-18T17:36:28.425Z,-1.60
2022-12-18T17:38:58.242Z,-1.10
2022-12-18T17:41:25.997Z,-1.00
2022-12-18T17:43:53.652Z,-1.60
2022-12-18T17:46:20.873Z,-1.60
2022-12-18T17:48:48.084Z,-1.60
2022-12-18T17:51:16.150Z,-1.60
2022-12-18T17:53:43.560Z,-1.60
2022-12-18T17:56:13.831Z,-1.70
2022-12-18T17:58:40.667Z,-0.80
2022-12-18T18:01:08.123Z,-1.70
2022-12-18T18:03:38.089Z,-1.60
2022-12-18T18:06:05.365Z,-1.60
2022-12-18T18:08:32.064Z,-1.60
2022-12-18T18:11:21.355Z,-1.60
2022-12-18T18:14:04.436Z,-1.60
2022-12-18T18:16:43.255Z,-1.60
2022-12-18T18:19:13.173Z,-1.60
2022-12-18T18:21:42.030Z,-1.20
2022-12-18T18:24:10.165Z,-1.60
2022-12-18T18:26:37.828Z,-1.70
2022-12-18T18:29:06.956Z,-1.60
2022-12-18T18:31:35.865Z,-1.60
2022-12-18T18:34:08.877Z,-1.50
2022-12-18T18:36:35.731Z,-1.30
2022-12-18T18:39:02.372Z,-0.60
2022-12-18T18:41:30.667Z,-1.50
2022-12-18T18:43:58.523Z,-1.40
2022-12-18T18:46:25.866Z,-1.40
2022-12-18T18:48:52.484Z,-1.50
2022-12-18T18:51:21.557Z,-1.40
2022-12-18T18:53:51.032Z,-1.40
2022-12-18T18:59:06.975Z,-1.30
2022-12-18T19:01:33.800Z,-1.40
2022-12-18T19:04:03.779Z,-1.30
2022-12-18T19:06:30.707Z,-1.40
2022-12-18T19:08:58.913Z,-1.50
2022-12-18T19:11:44.558Z,-1.40
2022-12-18T19:14:13.867Z,-1.40
2022-12-18T19:16:41.391Z,-1.40
2022-12-18T19:19:08.139Z,-1.40
2022-12-18T19:21:35.806Z,-1.40
2022-12-18T19:24:02.765Z,-1.40
2022-12-18T19:26:30.208Z,-1.40
2022-12-18T19:29:05.939Z,-1.40
2022-12-18T19:31:35.999Z,-1.50
2022-12-18T19:34:07.305Z,-1.40
2022-12-18T19:36:36.186Z,-1.40
2022-12-18T19:39:14.749Z,-1.30
2022-12-18T19:41:43.262Z,-1.40
2022-12-18T19:44:13.727Z,-1.40
2022-12-18T19:46:42.311Z,-1.50
2022-12-18T19:49:10.549Z,-1.50
2022-12-18T19:51:37.860Z,-1.40
2022-12-18T19:54:04.488Z,-1.40
2022-12-18T19:56:34.677Z,-1.40
2022-12-18T19:59:03.040Z,-1.40
2022-12-18T20:01:30.748Z,-1.40
2022-12-18T20:03:58.852Z,-1.40
2022-12-18T20:06:36.614Z,-1.40
2022-12-18T20:09:06.151Z,-1.40
2022-12-18T20:11:37.506Z,-1.40
2022-12-18T20:14:13.419Z,-1.40
2022-12-18T20:16:40.849Z,-1.40
2022-12-18T20:19:07.877Z,-1.40
2022-12-18T20:21:34.719Z,-1.40
2022-12-18T20:24:02.004Z,-1.30
2022-12-18T20:26:29.281Z,-1.40
2022-12-18T20:28:56.050Z,-1.40
2022-12-18T20:31:23.663Z,-1.10
2022-12-18T20:33:51.075Z,-1.30
2022-12-18T20:36:23.507Z,-1.30
2022-12-18T20:38:58.076Z,-1.30
2022-12-18T20:41:28.177Z,-1.30
2022-12-18T20:44:04.825Z,-1.30
2022-12-18T20:46:31.447Z,-1.30
2022-12-18T20:48:58.111Z,-1.20
2022-12-18T20:51:26.611Z,-0.90
2022-12-18T20:53:55.252Z,-1.20
2022-12-18T20:56:23.439Z,-1.30
2022-12-18T20:58:55.084Z,-1.30
2022-12-18T21:01:23.532Z,-1.20
2022-12-18T21:03:51.360Z,-1.10
2022-12-18T21:06:20.158Z,-1.10
2022-12-18T21:08:47.136Z,-1.10
2022-12-18T21:11:45.226Z,-1.10
2022-12-18T21:14:16.575Z,-1.10
2022-12-18T21:16:46.329Z,-1.10
2022-12-18T21:19:15.348Z,-1.10
2022-12-18T21:21:42.615Z,-1.00
2022-12-18T21:24:14.906Z,-1.00
2022-12-18T21:26:45.736Z,-1.00
2022-12-18T21:29:15.818Z,-1.00
2022-12-18T21:31:43.735Z,-1.00
2022-12-18T21:34:16.088Z,-1.00
2022-12-18T21:36:42.752Z,-1.00
2022-12-18T21:39:09.515Z,-1.00
2022-12-18T21:41:55.413Z,-1.00
2022-12-18T21:44:23.345Z,-1.10
2022-12-18T21:46:56.759Z,-1.00
2022-12-18T21:49:26.499Z,-1.00
2022-12-18T21:51:58.414Z,-1.00
2022-12-18T21:54:26.195Z,-1.00
2022-12-18T21:57:00.594Z,-1.10
2022-12-18T21:59:29.821Z,-1.10
2022-12-18T22:01:59.668Z,-1.00
2022-12-18T22:04:26.778Z,-0.90
2022-12-18T22:06:53.774Z,-0.90
2022-12-18T22:09:22.573Z,-0.90
2022-12-18T22:11:50.262Z,-0.90
2022-12-18T22:14:20.740Z,-1.00
2022-12-18T22:16:47.801Z,-1.00
2022-12-18T22:19:15.106Z,-1.00
2022-12-18T22:21:44.903Z,-1.00
2022-12-18T22:24:16.131Z,-0.90
2022-12-18T22:26:43.461Z,-0.90
2022-12-18T22:29:33.961Z,-0.90
2022-12-18T22:32:01.666Z,-0.90
2022-12-18T22:34:28.728Z,-0.90
2022-12-18T22:36:55.482Z,-0.90
2022-12-18T22:39:27.135Z,-1.00
2022-12-18T22:41:55.912Z,-1.00
2022-12-18T22:44:26.410Z,-0.90
2022-12-18T22:47:05.950Z,-0.90
2022-12-18T22:49:34.719Z,-0.90
2022-12-18T22:52:02.207Z,-0.80
2022-12-18T22:54:28.855Z,-0.80
2022-12-18T22:56:55.417Z,-0.80
2022-12-18T22:59:23.190Z,-0.80
2022-12-18T23:01:51.405Z,-0.90
2022-12-18T23:04:23.806Z,-0.80
2022-12-18T23:06:52.646Z,-0.80
2022-12-18T23:09:20.605Z,-0.80
2022-12-18T23:11:47.940Z,-0.90
2022-12-18T23:14:15.031Z,-0.90
2022-12-18T23:16:41.682Z,-0.90
2022-12-18T23:19:10.242Z,-0.80
2022-12-18T23:21:36.946Z,-0.80
2022-12-18T23:24:03.984Z,-0.90
2022-12-18T23:26:30.654Z,-0.90
2022-12-18T23:28:57.286Z,-0.90
2022-12-18T23:31:30.385Z,-0.80
2022-12-18T23:33:58.782Z,-0.80
2022-12-18T23:36:25.872Z,-0.80
2022-12-18T23:38:55.766Z,-0.90
2022-12-18T23:41:24.877Z,-0.80
2022-12-18T23:43:52.209Z,-0.80
2022-12-18T23:46:27.454Z,-0.80
2022-12-18T23:48:58.260Z,-0.80
2022-12-18T23:51:26.096Z,-0.80
2022-12-18T23:53:54.475Z,-0.80
2022-12-18T23:56:21.589Z,-0.80
2022-12-18T23:58:48.556Z,-0.80
